Time;durP1;ratioP1;P1;durP2;ratioP2;P2;SDS_P1;SDS_P2;PMS_P1;PMS_P2;Temp;Humidity;BMP_temperature;BMP_pressure;BME280_temperature;BME280_humidity;BME280_pressure;Samples;Min_cycle;Max_cycle;Signal;HPM_P1;HPM_P2
2023/10/07 00:00:40;;;;;;;10.70;6.95;;;;;;;19.16;72.42;100681.75;5122686;27;20085;-62
2023/10/07 00:03:06;;;;;;;12.27;7.47;;;;;;;19.25;71.75;100685.94;5121629;27;20225;-62
2023/10/07 00:05:35;;;;;;;11.75;7.60;;;;;;;19.33;71.34;100682.28;5123588;27;20050;-62
2023/10/07 00:08:03;;;;;;;10.93;7.45;;;;;;;19.40;71.18;100685.84;5122915;27;20071;-62
2023/10/07 00:10:30;;;;;;;12.77;8.30;;;;;;;19.44;71.04;100689.81;5123327;27;20031;-63
2023/10/07 00:13:00;;;;;;;12.10;8.02;;;;;;;19.52;70.90;100692.38;5122636;27;20063;-62
2023/10/07 00:15:28;;;;;;;9.07;6.85;;;;;;;19.59;69.64;100690.53;5104913;27;20240;-63
2023/10/07 00:18:04;;;;;;;12.35;7.15;;;;;;;19.63;68.79;100693.66;5122426;27;20039;-62
2023/10/07 00:20:33;;;;;;;12.07;7.50;;;;;;;19.63;69.52;100691.81;5121882;27;20081;-61
2023/10/07 00:23:00;;;;;;;12.70;7.78;;;;;;;19.65;70.16;100695.13;5121986;27;20035;-63
2023/10/07 00:25:30;;;;;;;13.18;7.15;;;;;;;19.69;69.74;100690.19;5121986;27;20092;-62
2023/10/07 00:27:56;;;;;;;15.60;8.10;;;;;;;19.68;69.50;100685.84;5123509;27;20043;-63
2023/10/07 00:30:27;;;;;;;11.55;7.63;;;;;;;19.69;69.28;100696.38;5122532;27;20393;-62
2023/10/07 00:32:55;;;;;;;15.77;8.23;;;;;;;19.63;69.71;100701.72;5122790;27;20078;-62
2023/10/07 00:35:23;;;;;;;52.35;12.38;;;;;;;19.61;66.84;100701.09;5121604;27;20031;-63
2023/10/07 00:37:49;;;;;;;17.15;8.05;;;;;;;19.50;67.32;100688.19;5122546;27;20047;-63
2023/10/07 00:40:15;;;;;;;12.05;7.78;;;;;;;19.56;66.14;100701.69;5121658;27;20076;-62
2023/10/07 00:42:47;;;;;;;11.48;7.57;;;;;;;19.54;66.48;100703.75;5122523;27;20043;-62
2023/10/07 00:45:16;;;;;;;18.33;9.13;;;;;;;19.50;67.23;100701.63;5122553;27;20031;-62
2023/10/07 00:47:42;;;;;;;16.75;8.55;;;;;;;19.50;69.45;100696.25;5104522;28;20039;-63
2023/10/07 00:50:11;;;;;;;15.15;9.55;;;;;;;19.49;70.78;100699.97;5122660;28;20036;-63
2023/10/07 00:52:48;;;;;;;12.52;9.23;;;;;;;19.31;71.99;100693.22;5122193;27;20020;-62
2023/10/07 00:55:18;;;;;;;12.77;7.88;;;;;;;19.26;72.20;100702.91;5121900;28;20071;-63
2023/10/07 00:57:53;;;;;;;15.27;9.38;;;;;;;19.29;71.84;100697.13;5122464;27;20056;-63
2023/10/07 01:02:45;;;;;;;14.77;9.57;;;;;;;19.30;73.06;100699.63;5122206;28;20034;-63
2023/10/07 01:05:21;;;;;;;13.68;9.07;;;;;;;19.30;73.18;100694.25;5121865;28;20027;-62
2023/10/07 01:07:52;;;;;;;13.45;9.38;;;;;;;19.30;73.04;100702.31;5122314;28;20046;-63
2023/10/07 01:10:24;;;;;;;14.13;9.32;;;;;;;19.29;73.38;100699.81;5121348;28;20038;-63
2023/10/07 01:12:51;;;;;;;15.93;9.80;;;;;;;19.30;73.28;100707.69;5122262;28;20106;-63
2023/10/07 01:17:57;;;;;;;13.95;10.25;;;;;;;19.25;73.02;100701.25;5122005;28;20055;-63
2023/10/07 01:20:33;;;;;;;16.83;10.75;;;;;;;19.19;73.00;100694.78;5121394;28;20430;-63
2023/10/07 01:23:03;;;;;;;17.65;10.35;;;;;;;19.17;72.95;100696.00;5121778;28;20039;-63
2023/10/07 01:25:30;;;;;;;20.15;10.73;;;;;;;19.04;73.50;100696.75;5103544;28;20044;-63
2023/10/07 01:27:55;;;;;;;15.80;10.60;;;;;;;19.03;73.50;100695.91;5128920;28;20409;-63
2023/10/07 01:30:28;;;;;;;15.70;10.05;;;;;;;18.99;73.70;100686.59;5126318;27;20273;-63
2023/10/07 01:33:02;;;;;;;15.48;9.95;;;;;;;18.95;73.57;100692.53;5126472;27;20236;-62
2023/10/07 01:35:40;;;;;;;15.75;10.15;;;;;;;18.94;72.99;100693.56;5133784;27;20027;-63
2023/10/07 01:38:08;;;;;;;16.10;9.88;;;;;;;18.94;72.73;100685.50;5125102;27;20098;-62
2023/10/07 01:40:54;;;;;;;17.20;9.57;;;;;;;18.95;72.75;100685.31;5125241;27;20027;-63
2023/10/07 01:43:20;;;;;;;15.38;10.15;;;;;;;18.89;72.77;100690.63;5125423;27;20071;-63
2023/10/07 01:45:48;;;;;;;15.48;9.43;;;;;;;18.85;72.54;100681.28;5136115;27;20031;-63
2023/10/07 01:48:17;;;;;;;16.10;9.30;;;;;;;18.80;71.21;100676.50;5124776;27;20043;-63
2023/10/07 01:50:44;;;;;;;15.45;9.75;;;;;;;18.69;70.89;100679.69;5126410;27;20028;-63
2023/10/07 01:53:11;;;;;;;15.77;9.45;;;;;;;18.74;71.06;100688.00;5125633;27;20207;-63
2023/10/07 01:55:57;;;;;;;20.48;11.20;;;;;;;18.65;70.02;100681.09;5125646;27;20218;-63
2023/10/07 01:58:25;;;;;;;16.70;9.80;;;;;;;18.66;71.53;100686.25;5125935;27;20598;-63
2023/10/07 02:00:57;;;;;;;15.25;10.00;;;;;;;18.66;72.30;100683.56;5130461;27;20031;-62
2023/10/07 02:03:23;;;;;;;14.65;9.63;;;;;;;18.69;72.32;100691.25;5128560;27;20035;-63
2023/10/07 02:05:50;;;;;;;15.35;9.35;;;;;;;18.65;71.38;100676.53;5125664;27;20031;-63
2023/10/07 02:08:22;;;;;;;13.52;9.02;;;;;;;18.66;67.84;100685.44;5124584;27;20040;-63
2023/10/07 02:10:49;;;;;;;17.85;9.70;;;;;;;18.68;68.25;100681.53;5123590;27;20039;-63
2023/10/07 02:13:19;;;;;;;15.63;10.02;;;;;;;18.57;68.99;100676.66;5125072;27;20214;-63
2023/10/07 02:15:49;;;;;;;13.73;9.52;;;;;;;18.49;69.48;100680.28;5124687;27;20035;-63
2023/10/07 02:18:18;;;;;;;12.70;8.48;;;;;;;18.48;69.29;100677.78;5125224;27;20046;-62
2023/10/07 02:23:43;;;;;;;11.55;7.50;;;;;;;18.14;71.06;100681.13;5124556;27;20076;-63
2023/10/07 02:26:43;;;;;;;10.63;6.78;;;;;;;18.18;68.00;100682.41;5124075;27;20342;-63
2023/10/07 02:29:07;;;;;;;9.13;5.63;;;;;;;18.18;65.25;100682.41;5120015;27;20396;-63
2023/10/07 02:31:43;;;;;;;10.05;5.75;;;;;;;18.19;64.75;100684.91;5130158;27;20027;-63
2023/10/07 02:34:21;;;;;;;12.95;7.47;;;;;;;18.26;64.69;100682.31;5127221;27;20705;-63
2023/10/07 02:36:52;;;;;;;16.73;8.95;;;;;;;18.25;64.90;100683.31;5133922;27;20328;-62
2023/10/07 02:39:24;;;;;;;16.83;9.75;;;;;;;18.36;64.38;100676.63;5124542;27;20040;-63
2023/10/07 02:41:50;;;;;;;15.63;9.07;;;;;;;18.43;63.95;100686.41;5123545;27;20315;-62
2023/10/07 02:44:17;;;;;;;15.38;8.25;;;;;;;18.45;63.12;100684.38;5124620;27;20139;-63
2023/10/07 02:46:43;;;;;;;14.27;7.10;;;;;;;18.44;61.69;100673.81;5125137;27;20042;-62
2023/10/07 02:49:13;;;;;;;12.65;6.55;;;;;;;18.42;60.52;100684.75;5124175;27;20041;-63
2023/10/07 02:51:39;;;;;;;9.90;5.20;;;;;;;18.35;60.26;100683.00;5123932;27;20035;-62
2023/10/07 02:54:19;;;;;;;8.98;5.40;;;;;;;18.30;59.22;100678.22;5123485;27;20096;-63
2023/10/07 02:56:56;;;;;;;8.85;4.13;;;;;;;18.22;58.36;100675.66;5124309;27;20035;-63
2023/10/07 02:59:34;;;;;;;8.43;3.50;;;;;;;18.06;57.77;100683.91;5132846;27;20067;-63
2023/10/07 03:02:12;;;;;;;6.78;4.13;;;;;;;18.07;57.46;100675.69;5124396;27;20050;-63
2023/10/07 03:04:42;;;;;;;5.50;3.40;;;;;;;17.81;58.04;100678.03;5124918;27;20040;-63
2023/10/07 03:07:14;;;;;;;7.43;4.00;;;;;;;17.80;58.20;100685.25;5133346;27;20051;-63
2023/10/07 03:09:45;;;;;;;4.78;3.47;;;;;;;17.78;57.49;100683.78;5123895;27;20269;-62
2023/10/07 03:12:13;;;;;;;6.10;3.22;;;;;;;17.68;56.90;100686.69;5123560;27;20583;-63
2023/10/07 03:14:39;;;;;;;4.95;2.90;;;;;;;17.66;56.03;100687.88;5124464;27;20099;-63
2023/10/07 03:17:18;;;;;;;5.53;2.72;;;;;;;17.66;55.33;100685.19;5125607;27;20375;-63
2023/10/07 03:19:56;;;;;;;5.10;2.72;;;;;;;17.55;55.62;100698.03;5123995;27;20044;-63
2023/10/07 03:22:31;;;;;;;7.03;2.72;;;;;;;17.66;54.65;100694.09;5123310;27;20241;-63
2023/10/07 03:25:00;;;;;;;5.35;2.35;;;;;;;17.66;55.02;100691.41;5123223;27;20116;-63
2023/10/07 03:27:26;;;;;;;5.28;2.88;;;;;;;17.43;55.11;100690.63;5123757;27;20050;-63
2023/10/07 03:30:00;;;;;;;5.15;2.70;;;;;;;17.32;55.97;100693.75;5123415;27;20080;-63
2023/10/07 03:32:33;;;;;;;5.40;2.97;;;;;;;17.54;55.87;100693.69;5123554;27;20279;-64
2023/10/07 03:34:59;;;;;;;8.27;4.15;;;;;;;17.61;55.08;100685.75;5121692;27;20242;-63
2023/10/07 03:37:25;;;;;;;9.75;3.83;;;;;;;17.64;55.01;100693.41;5123411;27;20318;-63
2023/10/07 03:42:38;;;;;;;7.93;4.05;;;;;;;17.53;54.82;100699.22;5123161;27;20084;-63
2023/10/07 03:45:03;;;;;;;10.80;4.00;;;;;;;17.52;54.62;100695.72;5138535;27;20019;-64
2023/10/07 03:47:32;;;;;;;4.85;3.33;;;;;;;17.52;55.02;100700.25;5123004;27;20069;-63
2023/10/07 03:49:58;;;;;;;6.90;3.90;;;;;;;17.46;54.99;100698.31;5122163;27;20035;-63
2023/10/07 03:52:27;;;;;;;8.70;4.85;;;;;;;17.33;55.48;100703.47;5113905;27;20047;-64
2023/10/07 03:54:54;;;;;;;10.07;4.82;;;;;;;16.95;56.37;100695.44;5122284;27;20061;-64
2023/10/07 03:57:19;;;;;;;11.25;7.05;;;;;;;16.84;56.48;100704.72;5123972;27;20331;-63
2023/10/07 03:59:46;;;;;;;9.55;6.63;;;;;;;16.61;58.08;100704.66;5131819;27;20035;-64
2023/10/07 04:05:31;;;;;;;5.20;3.65;;;;;;;16.83;57.55;100700.38;5122014;27;20053;-64
2023/10/07 04:07:48;;;;;;;6.07;3.42;;;;;;;16.70;58.87;100708.19;5119933;27;20074;-65
2023/10/07 04:12:44;;;;;;;8.57;7.82;;;;;;;17.07;57.93;100709.22;5127891;27;20031;-64
2023/10/07 04:15:12;;;;;;;7.57;4.28;;;;;;;17.16;58.00;100716.16;5138670;27;20363;-64
2023/10/07 04:17:38;;;;;;;7.78;4.80;;;;;;;17.25;57.13;100723.09;5138640;27;20035;-64
2023/10/07 04:20:18;;;;;;;7.53;5.82;;;;;;;17.34;57.04;100718.50;5139020;27;20077;-64
2023/10/07 04:23:07;;;;;;;9.00;5.43;;;;;;;17.38;57.00;100722.47;5138739;27;20364;-64
2023/10/07 04:25:42;;;;;;;7.57;4.43;;;;;;;17.35;56.83;100714.81;5137895;27;20107;-64
2023/10/07 04:28:13;;;;;;;6.47;3.90;;;;;;;17.30;56.86;100715.38;5139010;27;20035;-64
2023/10/07 04:30:39;;;;;;;8.95;4.05;;;;;;;17.22;57.28;100712.75;5139477;27;20352;-64
2023/10/07 04:33:10;;;;;;;10.23;3.95;;;;;;;17.18;57.42;100717.66;5139326;27;20031;-64
2023/10/07 04:35:37;;;;;;;12.75;5.35;;;;;;;17.17;57.67;100718.66;5138671;27;20102;-64
2023/10/07 04:38:18;;;;;;;10.15;4.10;;;;;;;17.19;57.16;100729.19;5133506;27;20046;-64
2023/10/07 04:43:36;;;;;;;8.57;4.20;;;;;;;17.12;58.09;100728.25;5139554;27;20096;-63
2023/10/07 04:46:07;;;;;;;9.65;4.85;;;;;;;17.06;58.19;100720.94;5139608;27;20050;-65
2023/10/07 04:48:54;;;;;;;9.82;5.03;;;;;;;17.09;58.33;100724.09;5120289;27;20236;-63
2023/10/07 04:51:58;;;;;;;7.35;4.55;;;;;;;17.10;58.56;100719.56;5139003;27;20035;-64
2023/10/07 04:54:20;;;;;;;10.65;5.15;;;;;;;17.03;58.90;100732.84;5127966;27;20053;-64
2023/10/07 04:56:48;;;;;;;8.88;5.57;;;;;;;17.05;59.18;100724.63;5131940;27;20072;-64
2023/10/07 04:59:15;;;;;;;11.38;5.60;;;;;;;17.03;59.33;100729.31;5138533;27;20059;-63
2023/10/07 05:01:48;;;;;;;11.73;5.10;;;;;;;17.02;59.57;100723.13;5138933;28;20102;-64
2023/10/07 05:04:15;;;;;;;14.05;5.80;;;;;;;17.02;59.41;100728.50;5138216;27;20344;-64
2023/10/07 05:06:43;;;;;;;30.70;6.55;;;;;;;17.01;59.19;100732.19;5138902;27;20220;-64
2023/10/07 05:09:10;;;;;;;8.40;4.75;;;;;;;16.99;59.40;100738.72;5137961;27;20211;-64
2023/10/07 05:11:38;;;;;;;9.48;4.68;;;;;;;17.02;59.32;100743.72;5138650;28;20031;-64
2023/10/07 05:14:07;;;;;;;9.15;4.85;;;;;;;17.03;58.95;100743.53;5138929;27;20348;-64
2023/10/07 05:16:34;;;;;;;10.60;6.28;;;;;;;17.00;59.25;100746.56;5139025;27;20050;-64
2023/10/07 05:19:00;;;;;;;16.58;7.15;;;;;;;16.98;59.57;100735.22;5138537;28;20098;-64
2023/10/07 05:21:27;;;;;;;10.30;5.30;;;;;;;17.01;59.37;100742.06;5138635;27;20124;-65
2023/10/07 05:23:52;;;;;;;11.30;4.78;;;;;;;16.86;59.08;100744.66;5138778;27;20069;-64
2023/10/07 05:26:18;;;;;;;7.05;4.95;;;;;;;16.83;60.00;100739.69;5138704;28;20325;-64
2023/10/07 05:28:47;;;;;;;8.57;5.13;;;;;;;16.91;59.39;100747.66;5129677;28;20045;-64
2023/10/07 05:31:14;;;;;;;10.00;4.78;;;;;;;16.96;59.02;100750.63;5127118;27;20028;-64
2023/10/07 05:33:42;;;;;;;11.02;4.68;;;;;;;17.03;59.11;100748.06;5122401;28;20031;-64
2023/10/07 05:36:20;;;;;;;7.03;4.47;;;;;;;17.06;59.13;100756.56;5121467;28;20035;-64
2023/10/07 05:38:50;;;;;;;9.60;4.85;;;;;;;17.01;58.98;100744.72;5130999;28;20276;-64
2023/10/07 05:41:16;;;;;;;7.05;4.72;;;;;;;17.08;59.53;100751.84;5122339;28;20035;-64
2023/10/07 05:43:43;;;;;;;7.70;5.18;;;;;;;17.23;59.09;100751.91;5121438;28;20031;-64
2023/10/07 05:46:10;;;;;;;9.57;4.80;;;;;;;17.37;58.36;100756.44;5122569;28;20070;-64
2023/10/07 05:48:38;;;;;;;7.70;5.45;;;;;;;17.53;58.07;100764.34;5121256;28;20147;-64
2023/10/07 05:51:07;;;;;;;11.70;5.25;;;;;;;17.65;57.87;100762.03;5120736;28;20034;-64
2023/10/07 05:53:39;;;;;;;8.27;4.75;;;;;;;17.70;58.07;100769.59;5120578;28;20291;-64
2023/10/07 05:56:06;;;;;;;9.25;4.95;;;;;;;17.80;57.75;100775.50;5121078;28;20038;-64
2023/10/07 05:58:37;;;;;;;12.50;4.80;;;;;;;17.90;57.95;100775.22;5121985;28;20313;-64
2023/10/07 06:01:06;;;;;;;6.60;3.70;;;;;;;17.93;56.61;100772.19;5120995;28;20118;-64
2023/10/07 06:03:32;;;;;;;6.60;4.10;;;;;;;18.08;56.73;100784.56;5121064;28;20047;-64
2023/10/07 06:05:58;;;;;;;6.82;3.55;;;;;;;18.30;56.29;100785.47;5123257;28;20359;-64
2023/10/07 06:08:28;;;;;;;11.10;5.40;;;;;;;18.47;56.04;100776.19;5120784;28;20032;-64
2023/10/07 06:10:56;;;;;;;11.75;4.82;;;;;;;18.62;55.52;100780.72;5119881;28;20283;-64
2023/10/07 06:13:22;;;;;;;6.53;4.47;;;;;;;18.66;55.42;100776.63;5121361;28;20065;-64
2023/10/07 06:15:49;;;;;;;9.75;4.57;;;;;;;18.63;55.99;100787.75;5121596;27;20027;-64
2023/10/07 06:18:18;;;;;;;11.68;5.47;;;;;;;18.65;55.81;100777.66;5125433;27;20080;-64
2023/10/07 06:20:51;;;;;;;9.30;4.45;;;;;;;18.78;55.86;100773.28;5125014;27;20138;-64
2023/10/07 06:23:18;;;;;;;9.02;4.75;;;;;;;18.98;55.47;100776.19;5124579;27;21161;-64
2023/10/07 06:25:49;;;;;;;9.20;5.25;;;;;;;19.15;54.47;100774.06;5125365;27;20347;-63
2023/10/07 06:31:10;;;;;;;9.80;4.65;;;;;;;19.29;54.34;100765.09;5124167;27;20275;-64
2023/10/07 06:34:03;;;;;;;9.27;4.50;;;;;;;19.54;53.77;100762.84;5125230;27;20034;-64
2023/10/07 06:36:31;;;;;;;7.95;4.60;;;;;;;19.65;53.51;100770.34;5124446;27;20024;-64
2023/10/07 06:39:01;;;;;;;8.95;4.63;;;;;;;19.71;53.33;100749.94;5123900;27;20042;-64
2023/10/07 06:41:29;;;;;;;9.40;4.57;;;;;;;19.81;53.36;100757.69;5124181;27;20044;-65
2023/10/07 06:43:59;;;;;;;9.80;4.97;;;;;;;19.96;53.05;100756.53;5123876;27;20043;-64
2023/10/07 06:46:40;;;;;;;9.35;4.55;;;;;;;20.03;51.92;100759.25;5123267;27;20045;-65
2023/10/07 06:49:18;;;;;;;7.38;4.43;;;;;;;20.10;51.43;100749.34;5124373;27;20038;-64
2023/10/07 06:51:53;;;;;;;8.85;4.95;;;;;;;20.05;51.03;100762.56;5123640;27;20035;-64
2023/10/07 06:54:23;;;;;;;9.27;6.13;;;;;;;20.28;51.59;100759.56;5123533;27;20093;-64
2023/10/07 06:56:54;;;;;;;31.35;21.65;;;;;;;20.38;51.05;100760.03;5124596;27;20420;-65
2023/10/07 06:59:27;;;;;;;9.10;4.53;;;;;;;20.49;51.03;100755.94;5124862;27;20104;-65
2023/10/07 07:01:54;;;;;;;8.55;5.78;;;;;;;20.63;50.78;100754.97;5124311;27;20042;-65
2023/10/07 07:04:22;;;;;;;8.13;4.45;;;;;;;20.65;50.39;100760.97;5125067;27;20036;-64
2023/10/07 07:07:09;;;;;;;9.18;4.70;;;;;;;20.35;50.42;100763.13;5131345;27;20063;-64
2023/10/07 07:12:16;;;;;;;7.90;4.40;;;;;;;20.53;50.32;100757.19;5124028;27;20349;-65
2023/10/07 07:14:46;;;;;;;8.35;5.93;;;;;;;20.50;50.41;100749.53;5123790;27;20103;-65
2023/10/07 07:17:35;;;;;;;8.05;4.90;;;;;;;20.70;49.43;100751.25;5122771;27;20110;-65
2023/10/07 07:22:35;;;;;;;8.88;3.65;;;;;;;20.90;48.83;100747.78;5123867;27;20320;-64
2023/10/07 07:25:05;;;;;;;6.82;3.50;;;;;;;21.15;47.82;100743.47;5123046;27;20037;-64
2023/10/07 07:27:34;;;;;;;7.03;3.60;;;;;;;21.29;46.76;100745.16;5122982;27;20347;-65
2023/10/07 07:30:17;;;;;;;5.70;5.00;;;;;;;21.11;46.38;100742.22;5124086;27;20031;-65
2023/10/07 07:32:44;;;;;;;6.97;4.33;;;;;;;21.12;46.58;100748.44;5124013;27;20024;-62
2023/10/07 07:35:10;;;;;;;7.72;4.72;;;;;;;21.05;46.14;100756.50;5123367;27;20498;-64
2023/10/07 07:37:36;;;;;;;8.13;4.35;;;;;;;21.09;44.86;100744.28;5123611;27;20253;-62
2023/10/07 07:40:09;;;;;;;7.30;4.05;;;;;;;21.34;46.27;100734.59;5122863;27;20126;-64
2023/10/07 07:42:35;;;;;;;5.47;3.23;;;;;;;21.48;45.61;100731.88;5123240;27;20031;-65
2023/10/07 07:45:01;;;;;;;5.22;3.63;;;;;;;21.40;45.36;100727.53;5122842;27;20937;-62
2023/10/07 07:47:31;;;;;;;7.95;2.95;;;;;;;21.60;45.10;100731.03;5127804;27;20038;-62
2023/10/07 07:50:01;;;;;;;6.07;3.00;;;;;;;21.78;44.65;100721.44;5126311;27;20355;-62
2023/10/07 07:52:27;;;;;;;6.53;3.05;;;;;;;21.71;43.78;100717.94;5122483;27;20061;-62
2023/10/07 07:54:54;;;;;;;14.70;5.03;;;;;;;21.87;44.82;100715.63;5130719;27;20333;-62
2023/10/07 07:57:22;;;;;;;7.35;4.00;;;;;;;21.90;44.98;100709.81;5123510;27;20031;-63
2023/10/07 07:59:48;;;;;;;8.35;4.40;;;;;;;21.91;44.53;100711.47;5123560;27;20203;-63
2023/10/07 08:02:17;;;;;;;6.07;4.07;;;;;;;21.88;43.71;100706.50;5123713;27;20049;-63
2023/10/07 08:04:47;;;;;;;6.20;3.70;;;;;;;21.83;44.26;100708.16;5122246;27;20338;-63
2023/10/07 08:07:24;;;;;;;6.70;3.72;;;;;;;22.02;45.01;100709.16;5122876;27;20023;-62
2023/10/07 08:09:55;;;;;;;6.85;3.70;;;;;;;22.26;45.66;100703.91;5122349;27;20039;-63
2023/10/07 08:12:33;;;;;;;6.47;3.65;;;;;;;22.29;43.43;100705.34;5121088;27;20197;-62
2023/10/07 08:15:38;;;;;;;8.10;4.32;;;;;;;22.33;42.70;100703.03;5121056;27;20162;-63
2023/10/07 08:17:52;;;;;;;8.40;4.00;;;;;;;22.23;42.95;100703.50;5130882;27;20055;-63
2023/10/07 08:23:23;;;;;;;7.57;4.15;;;;;;;22.59;41.74;100705.56;5120837;27;20391;-63
2023/10/07 08:25:54;;;;;;;9.65;4.05;;;;;;;22.63;42.47;100701.41;5133106;27;20038;-63
2023/10/07 08:28:23;;;;;;;4.63;3.47;;;;;;;22.48;42.13;100701.69;5131535;27;20065;-63
2023/10/07 08:30:49;;;;;;;10.27;4.13;;;;;;;22.37;43.06;100699.69;5139000;27;20198;-63
2023/10/07 08:33:17;;;;;;;8.95;4.07;;;;;;;22.44;41.93;100697.78;5139476;27;20023;-63
2023/10/07 08:35:43;;;;;;;6.30;3.75;;;;;;;22.48;42.25;100690.06;5139251;27;20041;-63
2023/10/07 08:41:16;;;;;;;10.27;3.50;;;;;;;22.61;42.84;100690.00;5138825;27;20294;-63
2023/10/07 08:43:44;;;;;;;5.90;3.10;;;;;;;22.69;42.41;100678.94;5131341;27;20039;-63
2023/10/07 08:46:19;;;;;;;5.78;3.42;;;;;;;22.74;42.86;100676.41;5138498;27;20328;-62
2023/10/07 08:48:56;;;;;;;6.30;3.58;;;;;;;22.89;42.44;100676.97;5138680;27;20035;-63
2023/10/07 08:51:24;;;;;;;7.93;4.38;;;;;;;22.92;42.28;100673.00;5138926;27;20027;-63
2023/10/07 08:53:52;;;;;;;7.32;4.28;;;;;;;22.89;41.77;100671.56;5136113;27;20063;-63
2023/10/07 08:56:20;;;;;;;14.00;4.07;;;;;;;23.03;41.98;100666.06;5138791;27;20034;-63
2023/10/07 08:58:49;;;;;;;5.53;4.30;;;;;;;23.08;41.96;100661.63;5138629;27;20047;-63
2023/10/07 09:01:19;;;;;;;5.55;3.80;;;;;;;22.82;41.55;100664.53;5138220;27;20093;-63
2023/10/07 09:03:50;;;;;;;7.32;4.00;;;;;;;22.91;42.75;100668.66;5138995;28;20051;-63
2023/10/07 09:06:16;;;;;;;7.63;4.18;;;;;;;22.97;41.30;100656.97;5139053;27;20023;-63
2023/10/07 09:08:43;;;;;;;5.55;4.05;;;;;;;22.97;41.03;100658.84;5138447;28;20039;-62
2023/10/07 09:11:13;;;;;;;4.95;3.55;;;;;;;23.03;41.78;100657.94;5137704;27;20042;-63
2023/10/07 09:13:39;;;;;;;6.43;3.17;;;;;;;22.91;41.42;100647.03;5138479;28;20027;-63
2023/10/07 09:16:10;;;;;;;11.05;3.60;;;;;;;22.90;42.02;100648.09;5138517;27;20023;-63
2023/10/07 09:18:40;;;;;;;5.43;3.20;;;;;;;23.00;41.29;100639.50;5138829;28;20039;-63
2023/10/07 09:21:11;;;;;;;4.90;3.08;;;;;;;23.08;41.04;100639.19;5135759;27;20454;-63
2023/10/07 09:23:47;;;;;;;5.80;3.47;;;;;;;23.05;40.18;100634.25;5133968;28;20039;-63
2023/10/07 09:26:21;;;;;;;9.35;3.88;;;;;;;22.97;41.31;100629.13;5133839;27;20066;-63
2023/10/07 09:28:51;;;;;;;4.40;3.33;;;;;;;23.03;41.44;100626.38;5134727;28;20344;-62
2023/10/07 09:31:19;;;;;;;11.38;4.50;;;;;;;22.96;41.36;100632.88;5136322;27;20062;-63
2023/10/07 09:33:49;;;;;;;8.27;3.80;;;;;;;22.91;41.59;100623.56;5134993;28;20348;-63
2023/10/07 09:42:03;;;;;;;5.93;3.85;;;;;;;22.86;39.95;100607.16;5091619;28;20054;-63
2023/10/07 09:44:30;;;;;;;8.13;4.05;;;;;;;22.85;40.63;100599.28;5136520;27;20027;-63
2023/10/07 09:47:03;;;;;;;5.70;3.30;;;;;;;22.65;40.80;100591.34;5137166;28;20039;-63
2023/10/07 09:49:30;;;;;;;8.68;3.92;;;;;;;22.65;41.65;100599.44;5137130;27;20046;-63
2023/10/07 09:52:28;;;;;;;6.63;3.92;;;;;;;22.58;40.87;100590.56;5141578;27;20027;-63
2023/10/07 09:55:31;;;;;;;6.35;3.85;;;;;;;22.62;41.16;100587.19;5141097;27;20082;-63
2023/10/07 09:58:05;;;;;;;4.65;3.72;;;;;;;22.69;43.22;100589.84;5134800;27;20211;-63
2023/10/07 10:03:39;;;;;;;6.45;4.10;;;;;;;22.96;43.27;100581.56;5139911;27;20321;-63
2023/10/07 10:06:26;;;;;;;9.48;5.18;;;;;;;22.99;43.02;100573.84;5133539;27;20053;-64
2023/10/07 10:08:59;;;;;;;6.55;4.10;;;;;;;22.95;41.90;100571.81;5134872;27;20050;-64
2023/10/07 10:11:44;;;;;;;7.72;3.97;;;;;;;22.88;41.99;100564.56;5141491;27;20039;-63
2023/10/07 10:16:45;;;;;;;9.35;5.28;;;;;;;23.04;40.39;100559.66;5142386;27;20023;-63
2023/10/07 10:19:17;;;;;;;4.80;3.92;;;;;;;23.01;40.55;100552.84;5140814;27;20092;-63
2023/10/07 10:21:43;;;;;;;6.32;4.03;;;;;;;23.10;42.87;100539.84;5140778;27;20053;-63
2023/10/07 10:24:14;;;;;;;8.07;5.82;;;;;;;23.12;41.72;100537.75;5140646;27;20034;-63
2023/10/07 10:26:40;;;;;;;10.13;8.75;;;;;;;23.05;41.85;100528.91;5140782;27;20065;-64
2023/10/07 10:29:15;;;;;;;9.52;5.18;;;;;;;23.13;40.37;100528.59;5140576;27;20050;-63
2023/10/07 10:32:00;;;;;;;9.52;6.05;;;;;;;23.11;41.78;100520.72;5141208;27;20027;-64
2023/10/07 10:34:26;;;;;;;10.13;6.13;;;;;;;23.16;41.85;100512.75;5131884;27;20052;-64
2023/10/07 10:36:55;;;;;;;9.10;5.55;;;;;;;23.20;41.09;100510.44;5140711;27;20046;-63
2023/10/07 10:39:25;;;;;;;5.32;4.35;;;;;;;23.13;41.16;100498.88;5141194;27;20198;-64
2023/10/07 10:42:00;;;;;;;8.52;4.95;;;;;;;23.13;40.45;100488.91;5141153;27;20063;-64
2023/10/07 10:44:25;;;;;;;7.25;5.18;;;;;;;23.16;41.34;100490.31;5141038;27;20045;-66
2023/10/07 10:46:51;;;;;;;7.40;5.03;;;;;;;23.26;41.25;100479.81;5140573;27;20052;-63
2023/10/07 10:49:20;;;;;;;7.97;5.05;;;;;;;23.29;41.14;100475.81;5140878;27;20267;-63
2023/10/07 10:51:50;;;;;;;10.23;5.40;;;;;;;23.35;40.74;100467.63;5141260;27;20098;-64
2023/10/07 10:54:20;;;;;;;8.35;5.47;;;;;;;23.41;39.31;100457.78;5141031;27;20051;-63
2023/10/07 10:56:55;;;;;;;6.07;4.40;;;;;;;23.40;41.78;100461.53;5135367;27;20052;-64
2023/10/07 10:59:22;;;;;;;6.82;4.45;;;;;;;23.52;40.69;100459.72;5140812;27;20430;-63
2023/10/07 11:01:50;;;;;;;6.63;4.93;;;;;;;23.54;40.24;100450.34;5140634;27;20031;-63
2023/10/07 11:04:21;;;;;;;7.43;5.47;;;;;;;23.49;41.05;100449.34;5140763;27;20045;-64
2023/10/07 11:06:51;;;;;;;7.60;5.20;;;;;;;23.49;41.61;100450.19;5140687;27;20312;-64
2023/10/07 11:09:26;;;;;;;7.28;5.47;;;;;;;23.55;40.10;100446.59;5140688;27;20046;-63
2023/10/07 11:11:55;;;;;;;7.95;5.10;;;;;;;23.51;38.94;100445.38;5140521;27;20351;-64
2023/10/07 11:14:22;;;;;;;7.30;4.78;;;;;;;23.38;38.42;100433.94;5140873;27;20035;-64
2023/10/07 11:16:50;;;;;;;8.27;4.72;;;;;;;23.37;38.03;100430.41;5140435;27;20023;-64
2023/10/07 11:19:16;;;;;;;7.88;5.18;;;;;;;23.34;38.65;100420.03;5140071;27;20027;-64
2023/10/07 11:21:44;;;;;;;8.13;4.82;;;;;;;23.30;38.96;100416.16;5140100;27;20402;-64
2023/10/07 11:24:14;;;;;;;10.10;6.55;;;;;;;23.28;40.42;100410.16;5140322;27;20076;-64
2023/10/07 11:26:43;;;;;;;8.43;4.80;;;;;;;23.28;38.53;100409.34;5140930;27;20093;-64
2023/10/07 11:29:15;;;;;;;6.80;5.00;;;;;;;23.32;38.95;100400.53;5140031;27;20050;-64
2023/10/07 11:31:41;;;;;;;7.85;4.78;;;;;;;23.25;39.20;100392.53;5140667;27;20061;-63
2023/10/07 11:34:08;;;;;;;289.40;147.90;;;;;;;23.35;39.98;100402.78;5140212;27;20031;-63
2023/10/07 11:36:46;;;;;;;107.50;52.67;;;;;;;23.51;39.29;100391.31;5140340;27;20042;-64
2023/10/07 11:39:13;;;;;;;25.65;14.05;;;;;;;23.50;39.34;100389.66;5140142;27;20049;-63
2023/10/07 11:41:42;;;;;;;19.25;10.90;;;;;;;23.41;38.53;100392.94;5140009;27;20214;-63
2023/10/07 11:44:09;;;;;;;13.13;5.90;;;;;;;23.47;38.17;100389.31;5140263;27;20070;-64
2023/10/07 11:46:36;;;;;;;8.52;3.38;;;;;;;23.44;38.32;100385.19;5140586;27;20023;-64
2023/10/07 11:49:02;;;;;;;6.70;3.60;;;;;;;23.47;37.25;100381.19;5139870;27;20068;-63
2023/10/07 11:51:28;;;;;;;7.32;4.70;;;;;;;23.47;35.91;100376.63;5137896;27;20023;-64
2023/10/07 11:53:55;;;;;;;4.75;3.75;;;;;;;23.40;36.92;100372.34;5122691;27;20115;-63
2023/10/07 11:56:21;;;;;;;11.15;3.67;;;;;;;23.31;37.57;100366.47;5127098;27;20031;-64
2023/10/07 11:58:49;;;;;;;5.90;3.85;;;;;;;23.30;36.99;100361.28;5126540;27;20046;-64
2023/10/07 12:01:15;;;;;;;6.05;3.38;;;;;;;23.29;36.93;100362.34;5122353;27;20199;-63
2023/10/07 12:03:42;;;;;;;7.43;3.83;;;;;;;23.37;35.83;100364.72;5122273;27;20130;-63
2023/10/07 12:06:08;;;;;;;5.30;3.67;;;;;;;23.40;35.96;100356.97;5122880;27;20051;-63
2023/10/07 12:08:35;;;;;;;7.30;3.53;;;;;;;23.37;36.02;100354.72;5122537;27;20328;-64
2023/10/07 12:11:00;;;;;;;5.15;3.33;;;;;;;23.48;36.43;100353.94;5122626;27;20031;-64
2023/10/07 12:13:27;;;;;;;5.53;3.45;;;;;;;23.58;36.23;100353.41;5121236;27;20032;-63
2023/10/07 12:15:53;;;;;;;6.50;3.50;;;;;;;23.51;35.39;100348.06;5123206;27;20036;-64
2023/10/07 12:18:19;;;;;;;7.07;3.60;;;;;;;23.51;36.35;100341.84;5122769;27;20038;-63
2023/10/07 12:20:45;;;;;;;6.32;3.50;;;;;;;23.52;35.90;100341.59;5122277;27;20027;-64